createdAt,value
2019-03-13T00:01:42.030Z,1.03
2019-03-13T00:04:10.220Z,3.70
2019-03-13T00:06:38.380Z,2.40
2019-03-13T00:09:09.475Z,2.10
2019-03-13T00:11:37.915Z,1.30
2019-03-13T00:14:05.765Z,2.93
2019-03-13T00:16:33.864Z,3.17
2019-03-13T00:19:01.477Z,2.13
2019-03-13T00:21:29.705Z,8.93
2019-03-13T00:23:57.642Z,17.50
2019-03-13T00:26:25.049Z,16.43
2019-03-13T00:28:52.700Z,9.87
2019-03-13T00:31:20.367Z,21.77
2019-03-13T00:33:49.217Z,44.20
2019-03-13T00:36:17.250Z,10.77
2019-03-13T00:38:45.556Z,75.57
2019-03-13T00:41:14.047Z,66.10
2019-03-13T00:43:41.615Z,9.03
2019-03-13T00:46:09.186Z,36.10
2019-03-13T00:48:37.143Z,56.10
2019-03-13T00:51:04.797Z,51.37
2019-03-13T00:53:32.385Z,43.77
2019-03-13T00:56:00.335Z,37.13
2019-03-13T00:58:28.630Z,20.17
2019-03-13T01:01:06.723Z,42.67
2019-03-13T01:03:44.421Z,47.73
2019-03-13T01:06:27.116Z,10.27
2019-03-13T01:08:55.394Z,8.37
2019-03-13T01:11:23.308Z,11.63
2019-03-13T01:13:50.939Z,14.77
2019-03-13T01:16:19.001Z,38.27
2019-03-13T01:18:47.106Z,59.73
2019-03-13T01:21:15.575Z,62.80
2019-03-13T01:23:44.151Z,46.37
2019-03-13T01:26:12.137Z,62.33
2019-03-13T01:28:40.320Z,57.90
2019-03-13T01:31:36.322Z,16.10
2019-03-13T01:34:26.126Z,14.17
2019-03-13T01:36:54.064Z,9.80
2019-03-13T01:39:22.180Z,6.77
2019-03-13T01:41:50.214Z,5.73
2019-03-13T01:44:18.172Z,5.00
2019-03-13T01:46:46.305Z,5.30
2019-03-13T01:49:14.400Z,6.57
2019-03-13T01:51:42.145Z,2.67
2019-03-13T01:54:10.267Z,4.70
2019-03-13T01:56:37.936Z,2.93
2019-03-13T01:59:05.989Z,6.87
2019-03-13T02:01:34.001Z,2.20
2019-03-13T02:04:01.731Z,5.77
2019-03-13T02:06:29.811Z,1.83
2019-03-13T02:09:00.420Z,3.00
2019-03-13T02:11:29.627Z,2.17
2019-03-13T02:13:57.364Z,7.90
2019-03-13T02:16:25.113Z,2.10
2019-03-13T02:18:53.058Z,3.60
2019-03-13T02:21:20.595Z,4.13
2019-03-13T02:23:48.897Z,5.27
2019-03-13T02:26:16.943Z,8.07
2019-03-13T02:28:45.031Z,1.90
2019-03-13T02:31:14.555Z,6.23
2019-03-13T02:33:42.625Z,2.60
2019-03-13T02:36:10.365Z,4.47
2019-03-13T02:38:38.996Z,1.57
2019-03-13T02:41:07.133Z,4.73
2019-03-13T02:43:34.734Z,0.87
2019-03-13T02:46:02.786Z,2.83
2019-03-13T02:48:30.860Z,3.40
2019-03-13T02:50:58.849Z,1.20
2019-03-13T02:53:29.844Z,3.03
2019-03-13T02:55:58.277Z,3.23
2019-03-13T02:58:26.612Z,1.53
2019-03-13T03:01:09.506Z,0.87
2019-03-13T03:03:41.380Z,1.20
2019-03-13T03:06:09.411Z,1.80
2019-03-13T03:08:37.982Z,2.00
2019-03-13T03:11:05.710Z,3.43
2019-03-13T03:13:33.884Z,1.63
2019-03-13T03:16:02.282Z,1.43
2019-03-13T03:18:30.348Z,1.33
2019-03-13T03:20:58.088Z,1.47
2019-03-13T03:23:25.816Z,2.10
2019-03-13T03:25:54.057Z,0.93
2019-03-13T03:28:22.625Z,2.30
2019-03-13T03:30:50.712Z,1.10
2019-03-13T03:33:18.821Z,2.00
2019-03-13T03:35:46.662Z,0.80
2019-03-13T03:38:15.430Z,2.60
2019-03-13T03:40:44.098Z,1.97
2019-03-13T03:43:12.168Z,2.43
2019-03-13T03:45:40.270Z,1.13
2019-03-13T03:48:08.499Z,1.60
2019-03-13T03:50:37.028Z,3.60
2019-03-13T03:53:05.415Z,2.90
2019-03-13T03:55:34.169Z,3.10
2019-03-13T03:58:02.281Z,2.50
2019-03-13T04:00:30.342Z,4.30
2019-03-13T04:02:58.487Z,1.73
2019-03-13T04:05:26.910Z,4.53
2019-03-13T04:07:54.824Z,3.40
2019-03-13T04:10:26.559Z,6.10
2019-03-13T04:12:57.882Z,2.70
2019-03-13T04:15:25.818Z,2.60
2019-03-13T04:17:54.012Z,2.67
2019-03-13T04:20:21.674Z,2.97
2019-03-13T04:22:51.879Z,1.70
2019-03-13T04:25:51.279Z,5.00
2019-03-13T04:28:20.792Z,3.17
2019-03-13T04:30:55.624Z,3.27
2019-03-13T04:33:28.298Z,2.73
2019-03-13T04:35:58.463Z,2.77
2019-03-13T04:38:27.144Z,3.23
2019-03-13T04:40:56.095Z,2.50
2019-03-13T04:43:26.594Z,3.67
2019-03-13T04:45:53.955Z,1.63
2019-03-13T04:48:24.640Z,3.17
2019-03-13T04:50:54.819Z,2.30
2019-03-13T04:53:22.435Z,3.07
2019-03-13T04:55:52.863Z,2.33
2019-03-13T04:58:22.587Z,2.60
2019-03-13T05:00:52.563Z,2.43
2019-03-13T05:03:21.728Z,3.60
2019-03-13T05:05:54.347Z,1.67
2019-03-13T05:08:44.484Z,2.70
2019-03-13T05:11:06.913Z,4.37
2019-03-13T05:13:34.832Z,1.73
2019-03-13T05:16:03.014Z,3.37
2019-03-13T05:18:37.949Z,1.70
2019-03-13T05:21:05.950Z,19.80
2019-03-13T05:23:37.812Z,0.80
2019-03-13T05:26:08.590Z,4.70
2019-03-13T05:28:36.912Z,3.00
2019-03-13T05:31:05.255Z,4.00
2019-03-13T05:33:33.020Z,2.37
2019-03-13T05:36:01.037Z,2.00
2019-03-13T05:38:29.505Z,4.17
2019-03-13T05:40:57.623Z,3.00
2019-03-13T05:43:26.706Z,6.30
2019-03-13T05:45:55.262Z,3.43
2019-03-13T05:48:23.627Z,2.20
2019-03-13T05:50:51.345Z,1.00
2019-03-13T05:53:20.161Z,4.07
2019-03-13T05:55:48.178Z,1.53
2019-03-13T05:58:17.898Z,3.63
2019-03-13T06:00:45.298Z,3.90
2019-03-13T06:03:13.895Z,5.77
2019-03-13T06:05:43.447Z,2.27
2019-03-13T06:08:11.814Z,4.70
2019-03-13T06:10:40.535Z,6.70
2019-03-13T06:13:08.359Z,3.50
2019-03-13T06:15:35.923Z,3.50
2019-03-13T06:18:04.176Z,5.10
2019-03-13T06:20:32.702Z,6.20
2019-03-13T06:23:00.618Z,3.80
2019-03-13T06:25:35.214Z,8.70
2019-03-13T06:28:14.533Z,7.30
2019-03-13T06:30:42.487Z,2.37
2019-03-13T06:33:11.618Z,4.37
2019-03-13T06:35:47.193Z,4.00
2019-03-13T06:38:15.668Z,3.47
2019-03-13T06:40:43.281Z,2.00
2019-03-13T06:43:11.008Z,4.17
2019-03-13T06:45:39.045Z,2.30
2019-03-13T06:48:07.334Z,2.27
2019-03-13T06:50:35.303Z,2.93
2019-03-13T06:53:04.469Z,3.60
2019-03-13T06:55:32.501Z,3.33
2019-03-13T06:58:00.507Z,3.07
2019-03-13T07:00:47.281Z,3.60
2019-03-13T07:03:32.988Z,7.30
2019-03-13T07:06:26.585Z,4.30
2019-03-13T07:09:12.948Z,3.90
2019-03-13T07:12:06.408Z,3.83
2019-03-13T07:15:11.792Z,2.13
2019-03-13T07:17:59.025Z,18.67
2019-03-13T07:20:44.568Z,2.83
2019-03-13T07:23:32.175Z,3.60
2019-03-13T07:26:28.438Z,3.50
2019-03-13T07:29:12.895Z,1.97
2019-03-13T07:32:15.511Z,1.90
2019-03-13T07:35:01.682Z,1.60
2019-03-13T07:37:37.668Z,3.00
2019-03-13T07:40:27.716Z,2.67
2019-03-13T07:43:13.509Z,1.40
2019-03-13T07:45:58.132Z,1.80
2019-03-13T07:48:48.561Z,3.03
2019-03-13T07:51:44.678Z,3.90
2019-03-13T07:54:21.417Z,3.60
2019-03-13T07:56:59.378Z,1.70
2019-03-13T07:59:55.764Z,4.27
2019-03-13T08:02:48.653Z,2.73
2019-03-13T08:05:36.167Z,2.80
2019-03-13T08:08:16.160Z,7.90
2019-03-13T08:10:58.549Z,3.80
2019-03-13T08:13:33.980Z,2.47
2019-03-13T08:16:21.194Z,1.43
2019-03-13T08:19:14.254Z,2.27
2019-03-13T08:21:54.010Z,1.23
2019-03-13T08:24:43.332Z,2.87
2019-03-13T08:27:29.319Z,9.70
2019-03-13T08:30:26.615Z,2.53
2019-03-13T08:33:14.274Z,1.20
2019-03-13T08:35:53.115Z,2.03
2019-03-13T08:38:49.317Z,2.77
2019-03-13T08:41:42.282Z,8.23
2019-03-13T08:44:35.279Z,5.60
2019-03-13T08:47:09.223Z,4.77
2019-03-13T08:49:46.589Z,1.27
2019-03-13T08:52:20.933Z,3.40
2019-03-13T08:54:59.461Z,2.90
2019-03-13T08:57:53.796Z,5.93
2019-03-13T09:00:36.453Z,2.00
2019-03-13T09:03:18.308Z,2.53
2019-03-13T09:06:09.650Z,2.47
2019-03-13T09:09:12.472Z,1.03
2019-03-13T09:11:49.166Z,1.03
2019-03-13T09:14:38.685Z,3.50
2019-03-13T09:17:31.360Z,3.27
2019-03-13T09:20:18.900Z,1.77
2019-03-13T09:23:02.724Z,1.53
2019-03-13T09:25:53.675Z,3.17
2019-03-13T09:28:44.247Z,2.77
2019-03-13T09:31:25.425Z,2.27
2019-03-13T09:33:58.290Z,4.77
2019-03-13T09:36:35.781Z,16.23
2019-03-13T09:39:42.280Z,2.23
2019-03-13T09:42:29.391Z,2.67
2019-03-13T09:45:10.855Z,1.43
2019-03-13T09:48:02.030Z,2.17
2019-03-13T09:50:51.317Z,2.40
2019-03-13T09:53:25.378Z,1.60
2019-03-13T09:56:11.141Z,2.53
2019-03-13T09:59:04.612Z,5.50
2019-03-13T10:01:52.576Z,4.20
2019-03-13T10:04:35.352Z,4.17
2019-03-13T10:07:21.515Z,1.00
2019-03-13T10:10:00.538Z,1.43
2019-03-13T10:12:41.202Z,1.33
2019-03-13T10:15:17.043Z,3.77
2019-03-13T10:18:14.515Z,5.17
2019-03-13T10:21:04.739Z,5.60
2019-03-13T10:24:01.191Z,2.47
2019-03-13T10:26:38.416Z,1.60
2019-03-13T10:29:31.888Z,2.20
2019-03-13T10:32:17.677Z,1.27
2019-03-13T10:35:04.484Z,2.53
2019-03-13T10:38:13.760Z,3.77
2019-03-13T10:41:05.195Z,7.70
2019-03-13T10:43:54.758Z,2.70
2019-03-13T10:46:45.203Z,2.10
2019-03-13T10:49:19.736Z,5.20
2019-03-13T10:51:56.014Z,4.40
2019-03-13T10:54:44.039Z,3.30
2019-03-13T10:57:43.765Z,3.80
2019-03-13T11:00:29.818Z,4.27
2019-03-13T11:03:23.321Z,3.53
2019-03-13T11:06:15.058Z,1.43
2019-03-13T11:09:05.139Z,2.90
2019-03-13T11:11:43.416Z,3.17
2019-03-13T11:14:19.065Z,3.50
2019-03-13T11:16:52.571Z,3.50
2019-03-13T11:19:26.264Z,6.20
2019-03-13T11:21:59.881Z,3.20
2019-03-13T11:24:38.821Z,3.30
2019-03-13T11:27:26.066Z,3.73
2019-03-13T11:30:11.930Z,6.00
2019-03-13T11:33:02.016Z,3.07
2019-03-13T11:35:54.676Z,2.50
2019-03-13T11:38:48.411Z,2.33
2019-03-13T11:41:38.431Z,5.17
2019-03-13T11:44:24.199Z,3.63
2019-03-13T11:47:09.521Z,1.50
2019-03-13T11:49:52.233Z,4.80
2019-03-13T11:52:52.063Z,1.93
2019-03-13T11:55:45.983Z,3.60
2019-03-13T11:58:42.857Z,3.27
2019-03-13T12:01:30.930Z,8.40
2019-03-13T12:04:19.713Z,4.30
2019-03-13T12:07:08.946Z,2.93
2019-03-13T12:09:46.546Z,1.40
2019-03-13T12:12:49.244Z,3.13
2019-03-13T12:15:38.786Z,5.07
2019-03-13T12:18:26.261Z,2.00
2019-03-13T12:21:16.803Z,2.90
2019-03-13T12:24:01.430Z,5.10
2019-03-13T12:26:42.188Z,1.70
2019-03-13T12:29:43.081Z,2.13
2019-03-13T12:32:41.831Z,1.40
2019-03-13T12:35:35.039Z,0.87
2019-03-13T12:38:22.910Z,1.47
2019-03-13T12:41:08.910Z,1.50
2019-03-13T12:43:58.681Z,6.03
2019-03-13T12:47:04.521Z,2.10
2019-03-13T12:49:59.624Z,3.37
2019-03-13T12:52:47.402Z,2.40
2019-03-13T12:55:37.670Z,3.73
2019-03-13T12:58:35.415Z,1.70
2019-03-13T13:01:21.066Z,3.13
2019-03-13T13:04:06.118Z,2.67
2019-03-13T13:06:53.399Z,0.83
2019-03-13T13:09:39.585Z,5.13
2019-03-13T13:12:39.204Z,0.90
2019-03-13T13:15:27.547Z,0.53
2019-03-13T13:18:04.633Z,6.60
2019-03-13T13:20:34.898Z,4.90
2019-03-13T13:23:05.969Z,1.30
2019-03-13T13:25:35.384Z,2.47
2019-03-13T13:28:03.606Z,2.73
2019-03-13T13:30:32.630Z,1.70
2019-03-13T13:33:00.524Z,1.33
2019-03-13T13:35:28.903Z,2.60
2019-03-13T13:37:56.685Z,2.30
2019-03-13T13:40:24.762Z,3.20
2019-03-13T13:42:53.081Z,1.30
2019-03-13T13:45:51.091Z,3.40
2019-03-13T13:48:19.399Z,1.93
2019-03-13T13:50:47.891Z,3.63
2019-03-13T13:53:16.040Z,4.10
2019-03-13T13:55:44.505Z,4.10
2019-03-13T13:58:12.289Z,1.70
2019-03-13T14:00:41.064Z,1.03
2019-03-13T14:03:09.433Z,1.37
2019-03-13T14:05:40.782Z,1.53
2019-03-13T14:08:07.685Z,0.40
2019-03-13T14:10:35.402Z,1.80
2019-03-13T14:13:06.562Z,1.37
2019-03-13T14:15:34.225Z,3.83
2019-03-13T14:18:02.626Z,1.60
2019-03-13T14:20:33.507Z,2.63
2019-03-13T14:23:10.798Z,1.80
2019-03-13T14:25:41.665Z,2.47
2019-03-13T14:28:14.873Z,1.13
2019-03-13T14:30:42.937Z,2.90
2019-03-13T14:33:13.103Z,2.00
2019-03-13T14:35:46.197Z,3.30
2019-03-13T14:38:12.526Z,3.90
2019-03-13T14:40:40.649Z,2.87
2019-03-13T14:43:09.143Z,1.20
2019-03-13T14:45:36.933Z,2.83
2019-03-13T14:48:05.641Z,2.43
2019-03-13T14:50:36.295Z,2.83
2019-03-13T14:53:03.913Z,1.37
2019-03-13T14:55:32.361Z,2.77
2019-03-13T14:58:00.627Z,6.80
2019-03-13T15:00:28.797Z,3.30
2019-03-13T15:02:56.332Z,3.27
2019-03-13T15:05:25.227Z,4.20
2019-03-13T15:07:52.946Z,2.33
2019-03-13T15:10:20.798Z,2.07
2019-03-13T15:12:49.084Z,2.30
2019-03-13T15:15:17.125Z,2.60
2019-03-13T15:17:45.206Z,3.70
2019-03-13T15:20:13.791Z,2.10
2019-03-13T15:22:41.214Z,2.67
2019-03-13T15:25:09.240Z,2.80
2019-03-13T15:27:37.184Z,3.77
2019-03-13T15:30:05.376Z,2.00
2019-03-13T15:32:33.953Z,4.20
2019-03-13T15:35:01.806Z,2.87
2019-03-13T15:37:30.220Z,8.40
2019-03-13T15:39:57.871Z,3.13
2019-03-13T15:42:26.132Z,2.00
2019-03-13T15:44:53.847Z,3.83
2019-03-13T15:47:22.622Z,1.60
2019-03-13T15:49:50.784Z,1.70
2019-03-13T15:52:18.821Z,2.37
2019-03-13T15:54:46.929Z,1.07
2019-03-13T15:57:14.598Z,3.50
2019-03-13T15:59:42.553Z,2.33
2019-03-13T16:02:13.611Z,5.70
2019-03-13T16:04:42.306Z,4.77
2019-03-13T16:07:09.869Z,1.90
2019-03-13T16:09:37.995Z,1.97
2019-03-13T16:12:06.040Z,5.00
2019-03-13T16:14:35.607Z,2.63
2019-03-13T16:17:03.572Z,6.70
2019-03-13T16:19:32.199Z,5.30
2019-03-13T16:21:59.949Z,3.80
2019-03-13T16:24:29.508Z,2.53
2019-03-13T16:26:57.803Z,3.50
2019-03-13T16:29:30.833Z,2.60
2019-03-13T16:31:58.450Z,2.83
2019-03-13T16:34:30.464Z,1.57
2019-03-13T16:36:59.398Z,1.83
2019-03-13T16:39:30.557Z,5.93
2019-03-13T16:41:57.863Z,2.90
2019-03-13T16:44:27.106Z,1.63
2019-03-13T16:46:55.204Z,2.60
2019-03-13T16:49:24.277Z,4.77
2019-03-13T16:51:52.276Z,3.37
2019-03-13T16:54:20.720Z,1.07
2019-03-13T16:56:48.549Z,2.87
2019-03-13T16:59:17.019Z,1.70
2019-03-13T17:01:47.151Z,6.50
2019-03-13T17:04:17.515Z,1.30
2019-03-13T17:06:48.423Z,4.17
2019-03-13T17:09:17.465Z,3.37
2019-03-13T17:11:45.706Z,3.67
2019-03-13T17:14:13.820Z,1.83
2019-03-13T17:16:43.246Z,2.50
2019-03-13T17:19:10.970Z,3.27
2019-03-13T17:21:43.568Z,3.07
2019-03-13T17:24:12.682Z,2.87
2019-03-13T17:26:40.838Z,14.93
2019-03-13T17:29:09.955Z,5.33
2019-03-13T17:31:38.799Z,11.00
2019-03-13T17:34:06.823Z,8.20
2019-03-13T17:36:35.973Z,12.03
2019-03-13T17:39:05.136Z,12.57
2019-03-13T17:41:35.180Z,11.80
2019-03-13T17:44:03.136Z,8.03
2019-03-13T17:46:30.763Z,6.83
2019-03-13T17:48:58.410Z,7.53
2019-03-13T17:51:48.368Z,5.13
2019-03-13T17:54:16.119Z,3.23
2019-03-13T17:56:46.349Z,11.13
2019-03-13T17:59:14.840Z,4.70
2019-03-13T18:01:44.943Z,14.67
2019-03-13T18:04:17.346Z,15.33
2019-03-13T18:06:45.426Z,5.77
2019-03-13T18:09:20.249Z,6.23
2019-03-13T18:11:48.210Z,5.33
2019-03-13T18:14:16.438Z,6.03
2019-03-13T18:16:46.851Z,6.40
2019-03-13T18:19:16.303Z,10.13
2019-03-13T18:21:45.834Z,6.13
2019-03-13T18:24:17.431Z,9.17
2019-03-13T18:26:45.052Z,4.70
2019-03-13T18:29:12.971Z,9.53
2019-03-13T18:31:40.903Z,12.33
2019-03-13T18:34:12.380Z,10.00
2019-03-13T18:36:50.883Z,4.27
2019-03-13T18:39:28.912Z,1.13
2019-03-13T18:41:57.447Z,3.90
2019-03-13T18:44:26.065Z,2.53
2019-03-13T18:46:54.580Z,2.77
2019-03-13T18:49:22.796Z,1.20
2019-03-13T18:51:52.559Z,3.60
2019-03-13T18:54:20.837Z,3.47
2019-03-13T18:56:48.689Z,3.40
2019-03-13T18:59:17.627Z,2.73
2019-03-13T19:01:45.812Z,4.10
2019-03-13T19:04:15.883Z,2.23
2019-03-13T19:06:43.952Z,1.70
2019-03-13T19:09:15.472Z,0.90
2019-03-13T19:11:43.612Z,0.87
2019-03-13T19:14:12.236Z,1.60
2019-03-13T19:16:44.663Z,1.00
2019-03-13T19:19:12.761Z,1.73
2019-03-13T19:21:42.059Z,3.63
2019-03-13T19:24:10.161Z,2.83
2019-03-13T19:26:38.799Z,2.93
2019-03-13T19:29:07.074Z,2.10
2019-03-13T19:31:34.799Z,3.03
2019-03-13T19:34:02.409Z,4.13
2019-03-13T19:36:30.339Z,2.53
2019-03-13T19:39:00.409Z,5.70
2019-03-13T19:41:30.122Z,1.43
2019-03-13T19:43:58.061Z,6.43
2019-03-13T19:46:27.203Z,1.50
2019-03-13T19:48:54.966Z,1.87
2019-03-13T19:51:27.207Z,1.37
2019-03-13T19:53:55.519Z,4.87
2019-03-13T19:56:25.146Z,3.03
2019-03-13T19:58:53.766Z,0.57
2019-03-13T20:01:25.357Z,2.57
2019-03-13T20:03:57.944Z,2.77
2019-03-13T20:06:28.039Z,1.50
2019-03-13T20:08:59.191Z,2.27
2019-03-13T20:11:32.771Z,3.47
2019-03-13T20:14:02.522Z,6.03
2019-03-13T20:16:32.177Z,2.30
2019-03-13T20:19:03.635Z,4.17
2019-03-13T20:21:33.302Z,3.40
2019-03-13T20:24:03.834Z,5.20
2019-03-13T20:26:34.812Z,1.67
2019-03-13T20:29:08.024Z,2.47
2019-03-13T20:31:45.782Z,2.20
2019-03-13T20:34:29.242Z,1.30
2019-03-13T20:37:02.831Z,6.70
2019-03-13T20:39:30.676Z,0.83
2019-03-13T20:41:58.332Z,4.30
2019-03-13T20:44:31.136Z,2.73
2019-03-13T20:47:03.401Z,5.50
2019-03-13T20:49:34.626Z,1.30
2019-03-13T20:52:05.336Z,2.53
2019-03-13T20:54:34.010Z,2.17
2019-03-13T20:57:03.420Z,4.10
2019-03-13T20:59:32.745Z,3.03
2019-03-13T21:02:01.681Z,5.10
2019-03-13T21:04:30.361Z,2.20
2019-03-13T21:06:59.124Z,5.33
2019-03-13T21:09:29.075Z,3.53
2019-03-13T21:12:01.157Z,2.57
2019-03-13T21:14:29.785Z,5.37
2019-03-13T21:16:58.211Z,7.53
2019-03-13T21:19:26.088Z,5.00
2019-03-13T21:21:54.422Z,2.63
2019-03-13T21:24:23.286Z,4.00
2019-03-13T21:26:51.358Z,3.90
2019-03-13T21:29:19.981Z,2.73
2019-03-13T21:31:47.708Z,3.80
2019-03-13T21:34:15.427Z,2.43
2019-03-13T21:36:45.255Z,1.63
2019-03-13T21:39:13.833Z,5.03
2019-03-13T21:41:42.224Z,2.30
2019-03-13T21:44:11.645Z,2.87
2019-03-13T21:46:40.368Z,2.20
2019-03-13T21:49:08.747Z,3.23
2019-03-13T21:51:39.566Z,2.10
2019-03-13T21:54:07.733Z,5.63
2019-03-13T21:56:35.606Z,3.17
2019-03-13T21:59:04.887Z,2.80
2019-03-13T22:01:33.290Z,1.90
2019-03-13T22:04:01.129Z,4.30
2019-03-13T22:06:29.719Z,3.60
2019-03-13T22:08:57.909Z,1.80
2019-03-13T22:11:26.265Z,2.80
2019-03-13T22:13:56.820Z,5.90
2019-03-13T22:16:24.621Z,1.40
2019-03-13T22:18:52.484Z,1.20
2019-03-13T22:21:20.200Z,1.63
2019-03-13T22:23:47.954Z,4.80
2019-03-13T22:26:16.334Z,5.83
2019-03-13T22:28:44.423Z,0.93
2019-03-13T22:31:12.631Z,1.70
2019-03-13T22:33:41.359Z,2.33
2019-03-13T22:36:10.152Z,4.87
2019-03-13T22:38:38.989Z,1.90
2019-03-13T22:41:06.738Z,3.87
2019-03-13T22:43:34.647Z,2.17
2019-03-13T22:46:02.392Z,3.33
2019-03-13T22:48:30.438Z,2.70
2019-03-13T22:51:02.053Z,4.00
2019-03-13T22:53:28.425Z,2.73
2019-03-13T22:55:56.489Z,2.53
2019-03-13T22:58:24.955Z,1.90
2019-03-13T23:01:00.722Z,1.97
2019-03-13T23:03:31.322Z,2.23
2019-03-13T23:05:59.080Z,2.00
2019-03-13T23:08:26.709Z,1.40
2019-03-13T23:10:54.403Z,2.00
2019-03-13T23:13:22.818Z,1.27
2019-03-13T23:15:56.775Z,3.40
2019-03-13T23:18:25.209Z,2.00
2019-03-13T23:20:53.173Z,0.97
2019-03-13T23:23:21.151Z,2.10
2019-03-13T23:25:49.205Z,2.60
2019-03-13T23:28:18.204Z,5.17
2019-03-13T23:30:46.200Z,0.83
2019-03-13T23:33:14.951Z,4.20
2019-03-13T23:35:42.889Z,2.17
2019-03-13T23:38:11.283Z,1.43
2019-03-13T23:40:39.302Z,0.77
2019-03-13T23:43:07.596Z,1.80
2019-03-13T23:45:35.573Z,1.70
2019-03-13T23:48:04.118Z,2.70
2019-03-13T23:50:31.803Z,1.13
2019-03-13T23:53:00.023Z,0.63
2019-03-13T23:55:28.518Z,3.30
2019-03-13T23:57:57.107Z,0.77
